Thunderstorms From: 15-12-2017 06:00 Until: 16-12-2017 06:00 warning for: Thunderstorms Level: Yellow info button

Although rather usual in this region, locally or potentially dangerous phenomena are expected. (such as local winds, summer thunderstorms, rising streams or high waves) Be aware and pay attention to the latest weather updates, especially if you carry out activities exposed to weather or close to a stream or shoreline. 


Meteo18 Weather Cam more information Meteo18 Weather Cam


warning for Thunderstorms more information blitzortung!


Rain radar more information rain snow radar


Visit our other weather sites:

Template documentation
and downloads

And another site



Weather Underground History page Text

Daily Summary for November 23, 2016 Units:  Metric    English   Both
« Previous Day
Next Day »
Daily Weekly Monthly Yearly Custom
  High: Low: Average:
Temperature: 16.1 °C 8.7 °C 11.8 °C
Dew Point: 11.2 °C 8.1 °C 9.1 °C
Humidity: 96 % 65 % 85 %
Wind Speed: 17.7 km/h 0.0 km/h 3.2 km/h
Wind Gust: 22.5 km/h - -
Wind:- - ESE
Pressure: 1012.1 hPa 1010.0 hPa -
Precipitation: 0.0 mm    
Historical Graphs
 
 
Tabular Data for November 23, 2016
Time Temperature Dew Point Pressure Wind Wind Speed Wind Gust Humidity Rainfall Rate (Hourly)
00:02 8.7 °C 8.1 °C 1011.4 hPa NNW 6.4 km/h 16.1 km/h 96 % 0.0 mm
00:12 8.8 °C 8.2 °C 1011.4 hPa NNE 3.2 km/h 11.3 km/h 96 % 0.0 mm
00:17 8.8 °C 8.2 °C 1011.4 hPa NE 3.2 km/h 9.7 km/h 96 % 0.0 mm
00:22 8.8 °C 8.2 °C 1011.4 hPa NE 3.2 km/h 11.3 km/h 96 % 0.0 mm
00:32 8.8 °C 8.2 °C 1011.1 hPa NNW 4.8 km/h 14.5 km/h 96 % 0.0 mm
00:42 8.8 °C 8.2 °C 1011.1 hPa NE 17.7 km/h 17.7 km/h 96 % 0.0 mm
00:47 8.9 °C 8.3 °C 1010.7 hPa NNE 6.4 km/h 16.1 km/h 96 % 0.0 mm
00:57 8.9 °C 8.3 °C 1011.1 hPa NNE 11.3 km/h 20.9 km/h 96 % 0.0 mm
01:02 8.9 °C 8.3 °C 1010.7 hPa NNE 6.4 km/h 20.9 km/h 96 % 0.0 mm
01:12 8.9 °C 8.3 °C 1010.7 hPa North 9.7 km/h 19.3 km/h 96 % 0.0 mm
01:17 8.9 °C 8.3 °C 1010.7 hPa NE 16.1 km/h 17.7 km/h 96 % 0.0 mm
01:22 8.9 °C 8.3 °C 1010.7 hPa NE 12.9 km/h 17.7 km/h 96 % 0.0 mm
01:32 8.9 °C 8.3 °C 1010.7 hPa North 6.4 km/h 17.7 km/h 96 % 0.0 mm
01:37 8.9 °C 8.3 °C 1010.4 hPa NE 8.0 km/h 19.3 km/h 96 % 0.0 mm
01:47 8.9 °C 8.3 °C 1010.4 hPa Calm   14.5 km/h 96 % 0.0 mm
01:52 8.9 °C 8.3 °C 1010.7 hPa NNE 8.0 km/h 14.5 km/h 96 % 0.0 mm
01:57 8.9 °C 8.3 °C 1010.7 hPa NNE 3.2 km/h 14.5 km/h 96 % 0.0 mm
02:02 8.9 °C 8.3 °C 1010.4 hPa North 9.7 km/h 14.5 km/h 96 % 0.0 mm
02:12 8.9 °C 8.3 °C 1010.4 hPa ENE 1.6 km/h 12.9 km/h 96 % 0.0 mm
02:17 8.9 °C 8.3 °C 1010.4 hPa NNE 3.2 km/h 12.9 km/h 96 % 0.0 mm
02:22 9.1 °C 8.5 °C 1010.4 hPa NE 8.0 km/h 12.9 km/h 96 % 0.0 mm
02:27 9.0 °C 8.4 °C 1010.4 hPa NNW 4.8 km/h 11.3 km/h 96 % 0.0 mm
02:32 9.0 °C 8.4 °C 1010.4 hPa NE 1.6 km/h 11.3 km/h 96 % 0.0 mm
02:42 9.1 °C 8.5 °C 1010.4 hPa NNE 4.8 km/h 11.3 km/h 96 % 0.0 mm
02:47 9.1 °C 8.5 °C 1010.4 hPa NNE 3.2 km/h 11.3 km/h 96 % 0.0 mm
02:52 9.1 °C 8.5 °C 1010.4 hPa NE 4.8 km/h 11.3 km/h 96 % 0.0 mm
02:57 9.1 °C 8.5 °C 1010.4 hPa Calm   6.4 km/h 96 % 0.0 mm
03:02 9.1 °C 8.5 °C 1010.4 hPa NNE 8.0 km/h 8.0 km/h 96 % 0.0 mm
03:07 9.1 °C 8.5 °C 1010.4 hPa Calm   8.0 km/h 96 % 0.0 mm
03:12 9.1 °C 8.5 °C 1010.4 hPa Calm   8.0 km/h 96 % 0.0 mm
03:17 9.1 °C 8.5 °C 1010.4 hPa WSW 3.2 km/h 8.0 km/h 96 % 0.0 mm
03:22 9.1 °C 8.5 °C 1010.4 hPa ENE 1.6 km/h 8.0 km/h 96 % 0.0 mm
03:27 9.0 °C 8.4 °C 1010.4 hPa NNE 4.8 km/h 8.0 km/h 96 % 0.0 mm
03:32 9.1 °C 8.5 °C 1010.0 hPa NE 4.8 km/h 8.0 km/h 96 % 0.0 mm
03:42 9.2 °C 8.6 °C 1010.0 hPa NE 4.8 km/h 9.7 km/h 96 % 0.0 mm
03:47 9.2 °C 8.6 °C 1010.0 hPa Calm   6.4 km/h 96 % 0.0 mm
03:52 9.2 °C 8.6 °C 1010.0 hPa NNE 6.4 km/h 6.4 km/h 96 % 0.0 mm
03:57 9.1 °C 8.5 °C 1010.0 hPa North 1.6 km/h 6.4 km/h 96 % 0.0 mm
04:02 9.1 °C 8.5 °C 1010.0 hPa NNE 4.8 km/h 6.4 km/h 96 % 0.0 mm
04:12 9.3 °C 8.7 °C 1010.0 hPa NE 3.2 km/h 6.4 km/h 96 % 0.0 mm
04:17 9.4 °C 8.8 °C 1010.0 hPa NNE 6.4 km/h 8.0 km/h 96 % 0.0 mm
04:22 9.4 °C 8.6 °C 1010.0 hPa ENE 1.6 km/h 8.0 km/h 95 % 0.0 mm
04:27 9.4 °C 8.6 °C 1010.0 hPa ENE 6.4 km/h 11.3 km/h 95 % 0.0 mm
04:32 9.4 °C 8.6 °C 1010.0 hPa NE 3.2 km/h 11.3 km/h 95 % 0.0 mm
04:37 9.3 °C 8.5 °C 1010.0 hPa NE 4.8 km/h 6.4 km/h 95 % 0.0 mm
04:42 9.3 °C 8.5 °C 1010.0 hPa NE 3.2 km/h 6.4 km/h 95 % 0.0 mm
04:47 9.4 °C 8.6 °C 1010.0 hPa NNE 4.8 km/h 8.0 km/h 95 % 0.0 mm
04:52 9.4 °C 8.6 °C 1010.0 hPa NNE 3.2 km/h 8.0 km/h 95 % 0.0 mm
04:57 9.4 °C 8.6 °C 1010.0 hPa NE 4.8 km/h 8.0 km/h 95 % 0.0 mm
05:02 9.4 °C 8.6 °C 1010.0 hPa Calm   8.0 km/h 95 % 0.0 mm
05:12 9.4 °C 8.6 °C 1010.0 hPa NNE 4.8 km/h 6.4 km/h 95 % 0.0 mm
05:17 9.4 °C 8.6 °C 1010.0 hPa NNE 3.2 km/h 6.4 km/h 95 % 0.0 mm
05:22 9.4 °C 8.6 °C 1010.0 hPa NNE 1.6 km/h 6.4 km/h 95 % 0.0 mm
05:32 9.6 °C 8.8 °C 1010.0 hPa Calm   6.4 km/h 95 % 0.0 mm
05:37 9.6 °C 8.8 °C 1010.0 hPa Calm   3.2 km/h 95 % 0.0 mm
05:42 9.7 °C 8.9 °C 1010.0 hPa Calm   3.2 km/h 95 % 0.0 mm
05:52 9.8 °C 9.0 °C 1010.0 hPa Calm   1.6 km/h 95 % 0.0 mm
06:02 9.5 °C 8.6 °C 1010.4 hPa Calm   1.6 km/h 94 % 0.0 mm
06:12 9.5 °C 8.7 °C 1010.0 hPa Calm   1.6 km/h 95 % 0.0 mm
06:17 9.6 °C 8.8 °C 1010.0 hPa NW 1.6 km/h 1.6 km/h 95 % 0.0 mm
06:22 9.6 °C 8.8 °C 1010.0 hPa NW 1.6 km/h 1.6 km/h 95 % 0.0 mm
06:42 9.8 °C 9.0 °C 1010.4 hPa Calm   1.6 km/h 95 % 0.0 mm
06:52 9.8 °C 9.2 °C 1010.7 hPa Calm   1.6 km/h 96 % 0.0 mm
06:57 9.7 °C 8.9 °C 1010.4 hPa Calm     95 % 0.0 mm
07:02 9.7 °C 8.9 °C 1010.7 hPa Calm     95 % 0.0 mm
07:07 9.8 °C 9.0 °C 1010.7 hPa Calm   1.6 km/h 95 % 0.0 mm
07:12 9.9 °C 9.1 °C 1010.7 hPa Calm   1.6 km/h 95 % 0.0 mm
07:22 10.0 °C 9.1 °C 1010.7 hPa Calm   1.6 km/h 94 % 0.0 mm
07:32 10.1 °C 9.2 °C 1010.7 hPa Calm     94 % 0.0 mm
07:37 10.0 °C 8.9 °C 1010.7 hPa Calm     93 % 0.0 mm
07:42 10.0 °C 8.9 °C 1010.7 hPa Calm     93 % 0.0 mm
07:52 10.0 °C 8.9 °C 1011.1 hPa Calm   3.2 km/h 93 % 0.0 mm
08:02 10.1 °C 9.0 °C 1011.1 hPa Calm   1.6 km/h 93 % 0.0 mm
08:12 10.1 °C 9.0 °C 1011.1 hPa Calm   1.6 km/h 93 % 0.0 mm
08:17 10.2 °C 9.1 °C 1011.1 hPa Calm   1.6 km/h 93 % 0.0 mm
08:22 10.3 °C 9.1 °C 1011.4 hPa Calm   4.8 km/h 92 % 0.0 mm
08:32 10.3 °C 9.1 °C 1011.1 hPa Calm   4.8 km/h 92 % 0.0 mm
08:37 10.3 °C 8.9 °C 1011.4 hPa Calm   4.8 km/h 91 % 0.0 mm
08:42 10.3 °C 8.9 °C 1011.4 hPa Calm     91 % 0.0 mm
08:52 10.4 °C 9.0 °C 1011.4 hPa Calm     91 % 0.0 mm
08:57 10.5 °C 8.9 °C 1011.4 hPa Calm     90 % 0.0 mm
09:02 10.3 °C 8.7 °C 1011.4 hPa North 3.2 km/h 3.2 km/h 90 % 0.0 mm
09:12 10.2 °C 8.8 °C 1011.7 hPa Calm   4.8 km/h 91 % 0.0 mm
09:17 10.1 °C 8.9 °C 1011.7 hPa NW 1.6 km/h 4.8 km/h 92 % 0.0 mm
09:22 10.2 °C 9.0 °C 1011.7 hPa NNW 1.6 km/h 4.8 km/h 92 % 0.0 mm
09:32 10.4 °C 9.0 °C 1011.7 hPa North 1.6 km/h 4.8 km/h 91 % 0.0 mm
09:37 10.6 °C 9.2 °C 1011.7 hPa North 1.6 km/h 4.8 km/h 91 % 0.0 mm
09:42 10.7 °C 9.1 °C 1011.7 hPa North 1.6 km/h 4.8 km/h 90 % 0.0 mm
09:47 10.7 °C 9.1 °C 1012.1 hPa North 1.6 km/h 4.8 km/h 90 % 0.0 mm
09:52 10.7 °C 9.1 °C 1012.1 hPa North 1.6 km/h 3.2 km/h 90 % 0.0 mm
10:02 11.0 °C 9.3 °C 1012.1 hPa North 3.2 km/h 3.2 km/h 89 % 0.0 mm
10:07 11.1 °C 9.4 °C 1011.7 hPa North 1.6 km/h 3.2 km/h 89 % 0.0 mm
10:12 11.2 °C 9.5 °C 1012.1 hPa Calm   3.2 km/h 89 % 0.0 mm
10:17 11.3 °C 9.6 °C 1011.7 hPa NNW 1.6 km/h 3.2 km/h 89 % 0.0 mm
10:22 11.4 °C 9.5 °C 1012.1 hPa NNW 1.6 km/h 3.2 km/h 88 % 0.0 mm
10:32 11.6 °C 9.7 °C 1012.1 hPa NNW 1.6 km/h 3.2 km/h 88 % 0.0 mm
10:37 11.7 °C 9.8 °C 1012.1 hPa NW 1.6 km/h 3.2 km/h 88 % 0.0 mm
10:42 11.8 °C 9.9 °C 1012.1 hPa Calm   1.6 km/h 88 % 0.0 mm
10:47 11.8 °C 9.9 °C 1012.1 hPa Calm   1.6 km/h 88 % 0.0 mm
10:52 11.8 °C 9.7 °C 1012.1 hPa Calm   1.6 km/h 87 % 0.0 mm
10:57 11.9 °C 9.8 °C 1012.1 hPa Calm   1.6 km/h 87 % 0.0 mm
11:02 12.0 °C 9.9 °C 1012.1 hPa Calm   1.6 km/h 87 % 0.0 mm
11:07 12.2 °C 9.9 °C 1012.1 hPa Calm   1.6 km/h 86 % 0.0 mm
11:12 12.4 °C 9.9 °C 1012.1 hPa Calm   1.6 km/h 85 % 0.0 mm
11:17 12.7 °C 10.1 °C 1012.1 hPa Calm   1.6 km/h 84 % 0.0 mm
11:22 12.9 °C 10.1 °C 1012.1 hPa Calm   1.6 km/h 83 % 0.0 mm
11:32 13.3 °C 10.5 °C 1012.1 hPa Calm   3.2 km/h 83 % 0.0 mm
11:42 13.6 °C 10.6 °C 1012.1 hPa ESE 3.2 km/h 4.8 km/h 82 % 0.0 mm
11:47 13.7 °C 10.7 °C 1012.1 hPa Calm   4.8 km/h 82 % 0.0 mm
11:52 13.9 °C 10.7 °C 1012.1 hPa SE 1.6 km/h 8.0 km/h 81 % 0.0 mm
12:02 14.2 °C 10.8 °C 1012.1 hPa SE 4.8 km/h 6.4 km/h 80 % 0.0 mm
12:07 14.3 °C 10.9 °C 1012.1 hPa Calm   6.4 km/h 80 % 0.0 mm
12:12 14.4 °C 10.6 °C 1012.1 hPa ESE 1.6 km/h 4.8 km/h 78 % 0.0 mm
12:17 14.6 °C 10.8 °C 1011.7 hPa Calm   4.8 km/h 78 % 0.0 mm
12:22 14.7 °C 10.9 °C 1011.7 hPa East 3.2 km/h 8.0 km/h 78 % 0.0 mm
12:32 14.9 °C 11.1 °C 1011.7 hPa SE 1.6 km/h 8.0 km/h 78 % 0.0 mm
12:42 15.2 °C 11.0 °C 1011.7 hPa SE 4.8 km/h 8.0 km/h 76 % 0.0 mm
12:52 15.4 °C 11.2 °C 1011.7 hPa Calm   12.9 km/h 76 % 0.0 mm
13:02 15.4 °C 11.0 °C 1011.7 hPa ESE 8.0 km/h 16.1 km/h 75 % 0.0 mm
13:12 15.3 °C 11.1 °C 1011.7 hPa SE 8.0 km/h 16.1 km/h 76 % 0.0 mm
13:17 15.4 °C 10.8 °C 1011.7 hPa ESE 1.6 km/h 14.5 km/h 74 % 0.0 mm
13:22 15.4 °C 10.8 °C 1011.7 hPa SE 8.0 km/h 14.5 km/h 74 % 0.0 mm
13:32 15.4 °C 10.6 °C 1011.7 hPa ESE 4.8 km/h 12.9 km/h 73 % 0.0 mm
13:37 15.4 °C 10.4 °C 1011.7 hPa East 8.0 km/h 16.1 km/h 72 % 0.0 mm
13:42 15.4 °C 10.6 °C 1011.4 hPa ESE 6.4 km/h 16.1 km/h 73 % 0.0 mm
13:52 15.6 °C 10.1 °C 1011.4 hPa East 6.4 km/h 11.3 km/h 70 % 0.0 mm
13:57 15.6 °C 9.9 °C 1011.4 hPa ESE 4.8 km/h 12.9 km/h 69 % 0.0 mm
14:02 15.7 °C 10.0 °C 1011.4 hPa East 11.3 km/h 12.9 km/h 69 % 0.0 mm
14:07 15.7 °C 10.2 °C 1011.4 hPa East 8.0 km/h 22.5 km/h 70 % 0.0 mm
14:12 15.6 °C 10.1 °C 1011.4 hPa East 6.4 km/h 22.5 km/h 70 % 0.0 mm
14:22 15.6 °C 10.1 °C 1011.4 hPa ESE 3.2 km/h 17.7 km/h 70 % 0.0 mm
14:32 15.7 °C 9.8 °C 1011.4 hPa East 4.8 km/h 12.9 km/h 68 % 0.0 mm
14:42 15.8 °C 9.7 °C 1011.4 hPa ENE 6.4 km/h 12.9 km/h 67 % 0.0 mm
14:47 15.9 °C 9.6 °C 1011.1 hPa ENE 4.8 km/h 12.9 km/h 66 % 0.0 mm
14:57 16.0 °C 9.7 °C 1011.1 hPa East 8.0 km/h 16.1 km/h 66 % 0.0 mm
15:02 16.0 °C 9.4 °C 1011.1 hPa ENE 8.0 km/h 16.1 km/h 65 % 0.0 mm
15:07 16.1 °C 9.5 °C 1011.1 hPa ESE 4.8 km/h 16.1 km/h 65 % 0.0 mm
15:12 16.1 °C 9.7 °C 1011.1 hPa NE 3.2 km/h 16.1 km/h 66 % 0.0 mm
15:17 15.8 °C 9.9 °C 1011.1 hPa ENE 3.2 km/h 12.9 km/h 68 % 0.0 mm
15:22 15.5 °C 10.1 °C 1011.1 hPa ENE 4.8 km/h 12.9 km/h 70 % 0.0 mm
15:32 15.3 °C 10.1 °C 1011.1 hPa ENE 4.8 km/h 11.3 km/h 71 % 0.0 mm
15:42 15.1 °C 10.1 °C 1011.4 hPa ENE 4.8 km/h 11.3 km/h 72 % 0.0 mm
15:47 14.9 °C 10.1 °C 1011.4 hPa ENE 4.8 km/h 8.0 km/h 73 % 0.0 mm
15:52 14.8 °C 10.0 °C 1011.4 hPa ENE 3.2 km/h 8.0 km/h 73 % 0.0 mm
16:02 14.8 °C 10.0 °C 1011.4 hPa NE 6.4 km/h 8.0 km/h 73 % 0.0 mm
16:07 14.9 °C 10.1 °C 1011.4 hPa ENE 6.4 km/h 8.0 km/h 73 % 0.0 mm
16:12 15.0 °C 10.0 °C 1011.4 hPa NE 4.8 km/h 8.0 km/h 72 % 0.0 mm
16:17 15.0 °C 9.8 °C 1011.1 hPa NNE 3.2 km/h 12.9 km/h 71 % 0.0 mm
16:22 15.1 °C 9.7 °C 1011.1 hPa NE 4.8 km/h 12.9 km/h 70 % 0.0 mm
16:27 15.2 °C 9.8 °C 1011.4 hPa ENE 3.2 km/h 11.3 km/h 70 % 0.0 mm
16:32 15.2 °C 10.0 °C 1011.1 hPa North 4.8 km/h 11.3 km/h 71 % 0.0 mm
16:37 15.2 °C 9.8 °C 1011.1 hPa NE 4.8 km/h 8.0 km/h 70 % 0.0 mm
16:42 15.1 °C 9.7 °C 1011.1 hPa NE 6.4 km/h 8.0 km/h 70 % 0.0 mm
16:52 14.6 °C 9.8 °C 1011.4 hPa North 3.2 km/h 9.7 km/h 73 % 0.0 mm
16:57 14.5 °C 9.7 °C 1011.4 hPa Calm   8.0 km/h 73 % 0.0 mm
17:02 14.5 °C 9.7 °C 1011.4 hPa NW 1.6 km/h 8.0 km/h 73 % 0.0 mm
17:12 14.3 °C 9.5 °C 1011.7 hPa WNW 1.6 km/h 6.4 km/h 73 % 0.0 mm
17:17 14.2 °C 9.6 °C 1011.7 hPa Calm   1.6 km/h 74 % 0.0 mm
17:22 14.2 °C 9.4 °C 1011.7 hPa ENE 3.2 km/h 3.2 km/h 73 % 0.0 mm
17:27 14.2 °C 9.2 °C 1011.4 hPa ENE 4.8 km/h 6.4 km/h 72 % 0.0 mm
17:37 14.3 °C 9.1 °C 1011.4 hPa NE 4.8 km/h 8.0 km/h 71 % 0.0 mm
17:42 14.2 °C 9.2 °C 1011.4 hPa NNE 8.0 km/h 8.0 km/h 72 % 0.0 mm
17:52 13.9 °C 9.1 °C 1011.7 hPa ENE 1.6 km/h 16.1 km/h 73 % 0.0 mm
18:02 13.9 °C 9.1 °C 1011.7 hPa North 1.6 km/h 9.7 km/h 73 % 0.0 mm
18:07 13.7 °C 9.1 °C 1011.7 hPa Calm   8.0 km/h 74 % 0.0 mm
18:12 13.5 °C 9.0 °C 1011.7 hPa WNW 3.2 km/h 8.0 km/h 74 % 0.0 mm
18:17 13.2 °C 8.9 °C 1011.7 hPa West 1.6 km/h 8.0 km/h 75 % 0.0 mm
18:27 13.6 °C 9.1 °C 1011.4 hPa Calm   6.4 km/h 74 % 0.0 mm
18:32 14.0 °C 8.8 °C 1011.4 hPa NNE 1.6 km/h 6.4 km/h 71 % 0.0 mm
18:37 13.7 °C 8.7 °C 1011.7 hPa NNE 1.6 km/h 6.4 km/h 72 % 0.0 mm
18:47 14.1 °C 8.9 °C 1011.7 hPa Calm   6.4 km/h 71 % 0.0 mm
18:57 13.4 °C 8.7 °C 1011.7 hPa WNW 3.2 km/h 4.8 km/h 73 % 0.0 mm
19:07 14.4 °C 8.8 °C 1011.7 hPa NNW 1.6 km/h 4.8 km/h 69 % 0.0 mm
19:17 13.9 °C 8.5 °C 1011.7 hPa North 3.2 km/h 4.8 km/h 70 % 0.0 mm
19:22 13.8 °C 8.8 °C 1011.7 hPa North 3.2 km/h 4.8 km/h 72 % 0.0 mm
19:32 12.9 °C 8.4 °C 1011.7 hPa NNW 1.6 km/h 6.4 km/h 74 % 0.0 mm
19:37 13.3 °C 8.4 °C 1011.7 hPa NNW 1.6 km/h 6.4 km/h 72 % 0.0 mm
19:42 13.5 °C 8.6 °C 1011.7 hPa NNE 1.6 km/h 6.4 km/h 72 % 0.0 mm
19:52 12.9 °C 8.4 °C 1011.7 hPa Calm   4.8 km/h 74 % 0.0 mm
19:57 12.7 °C 8.4 °C 1011.7 hPa NNW 3.2 km/h 3.2 km/h 75 % 0.0 mm
20:02 12.6 °C 8.3 °C 1011.7 hPa NNE 3.2 km/h 3.2 km/h 75 % 0.0 mm
20:12 12.2 °C 8.5 °C 1011.7 hPa NNW 3.2 km/h 4.8 km/h 78 % 0.0 mm
20:17 11.9 °C 8.4 °C 1011.7 hPa NNE 3.2 km/h 6.4 km/h 79 % 0.0 mm
20:27 11.5 °C 8.5 °C 1011.7 hPa NNE 1.6 km/h 8.0 km/h 82 % 0.0 mm
20:32 11.4 °C 8.6 °C 1011.7 hPa NNW 6.4 km/h 8.0 km/h 83 % 0.0 mm
20:37 11.3 °C 8.5 °C 1011.7 hPa NE 3.2 km/h 8.0 km/h 83 % 0.0 mm
20:42 11.3 °C 8.7 °C 1011.7 hPa NNE 4.8 km/h 8.0 km/h 84 % 0.0 mm
20:52 11.4 °C 8.6 °C 1012.1 hPa Calm   9.7 km/h 83 % 0.0 mm
20:57 11.5 °C 8.7 °C 1011.7 hPa North 1.6 km/h 9.7 km/h 83 % 0.0 mm
21:02 11.6 °C 8.6 °C 1012.1 hPa NNW 4.8 km/h 9.7 km/h 82 % 0.0 mm
21:12 11.6 °C 8.6 °C 1012.1 hPa NNE 6.4 km/h 8.0 km/h 82 % 0.0 mm
21:17 11.5 °C 8.5 °C 1012.1 hPa Calm   8.0 km/h 82 % 0.0 mm
21:32 11.2 °C 8.6 °C 1012.1 hPa North 4.8 km/h 8.0 km/h 84 % 0.0 mm
21:37 11.3 °C 8.7 °C 1012.1 hPa NNE 6.4 km/h 9.7 km/h 84 % 0.0 mm
21:47 11.5 °C 8.7 °C 1012.1 hPa NNE 4.8 km/h 9.7 km/h 83 % 0.0 mm
21:52 11.5 °C 8.7 °C 1012.1 hPa North 4.8 km/h 9.7 km/h 83 % 0.0 mm
22:02 11.6 °C 8.6 °C 1012.1 hPa NNW 1.6 km/h 9.7 km/h 82 % 0.0 mm
22:12 11.6 °C 8.6 °C 1012.1 hPa North 4.8 km/h 6.4 km/h 82 % 0.0 mm
22:17 11.6 °C 8.6 °C 1012.1 hPa North 3.2 km/h 6.4 km/h 82 % 0.0 mm
22:22 11.4 °C 8.6 °C 1012.1 hPa Calm   6.4 km/h 83 % 0.0 mm
22:32 11.2 °C 8.6 °C 1012.1 hPa NNW 3.2 km/h 6.4 km/h 84 % 0.0 mm
22:42 11.4 °C 8.8 °C 1012.1 hPa NW 3.2 km/h 8.0 km/h 84 % 0.0 mm
22:52 11.4 °C 8.8 °C 1012.1 hPa Calm   8.0 km/h 84 % 0.0 mm
22:57 11.4 °C 8.8 °C 1012.1 hPa NNW 4.8 km/h 6.4 km/h 84 % 0.0 mm
23:02 11.3 °C 8.7 °C 1011.7 hPa NNE 6.4 km/h 6.4 km/h 84 % 0.0 mm
23:12 11.4 °C 8.8 °C 1012.1 hPa Calm   11.3 km/h 84 % 0.0 mm
23:17 11.4 °C 8.8 °C 1012.1 hPa NNW 1.6 km/h 11.3 km/h 84 % 0.0 mm
23:22 11.7 °C 9.1 °C 1012.1 hPa NNE 1.6 km/h 11.3 km/h 84 % 0.0 mm
23:27 11.6 °C 9.0 °C 1011.7 hPa North 3.2 km/h 9.7 km/h 84 % 0.0 mm
23:37 11.5 °C 9.1 °C 1011.7 hPa NE 3.2 km/h 12.9 km/h 85 % 0.0 mm
23:42 11.8 °C 9.2 °C 1011.7 hPa ENE 1.6 km/h 12.9 km/h 84 % 0.0 mm
23:47 12.1 °C 9.1 °C 1011.7 hPa NNE 6.4 km/h 12.9 km/h 82 % 0.0 mm
23:57 12.5 °C 9.1 °C 1012.1 hPa NNE 4.8 km/h 9.7 km/h 80 % 0.0 mm
Meteo18
Compliments of Weather Underground - 4 mb

Script developed by  Jim McMurry - jmcmurry@mwt.net Adapted for the template by  Wim van der Kuil - Leuven-Template.eu

You find our weather info also at:

European Weather Network

Weather Underground

Equipment we use:

Weather-station
Davis Vue

Weather-program
Meteohub

Weather-server
Raspberry PI 2 B+

Provider
1 and 1

Davis Vue

Meteohub

Raspberry PI 2 B+

1 and 1